EWG4YJ LOWG-EDDL
Flight info
| Callsign | EWG4YJ |
|---|---|
| Flight time | 1h 8m |
| Altitude | 38000 |
| Route | N0436F380 MILGO DCT DEXIT L850 LALIN L604 SULUS T852 TESDU DCT AMETU T852 TINSA T854 DOMUX DOMUX1A |
| Aircraft | A319/M-SDE2E3FGIJ1RWXYZ/EB1 |
Departure
| Time | 2026-05-04 15:58 |
|---|---|
| Airport | Graz Airport (LOWG) |
Arrival
| Time | 2026-05-04 17:07 |
|---|---|
| Airport | Düsseldorf Airport (EDDL) |
| Time | Latitude | Longitude | Altitude | Speed | Heading |
|---|---|---|---|---|---|
| 2026-05-04 15:26 | 46.99587 | 15.44325 | 1113 ft | 0 kts | 127° |
| 2026-05-04 15:50 | 46.99592 | 15.44315 | 1113 ft | 4 kts | 126° |
| 2026-05-04 15:51 | 46.99608 | 15.44284 | 1105 ft | 4 kts | 131° |
| 2026-05-04 15:51 | 46.99627 | 15.44257 | 1114 ft | 4 kts | 140° |
| 2026-05-04 15:51 | 46.99631 | 15.44252 | 1114 ft | 0 kts | 140° |
| 2026-05-04 15:53 | 46.99629 | 15.44251 | 1114 ft | 0 kts | 162° |
| 2026-05-04 15:54 | 46.99625 | 15.44248 | 1114 ft | 2 kts | 190° |
| 2026-05-04 15:54 | 46.99574 | 15.44237 | 1107 ft | 11 kts | 183° |
| 2026-05-04 15:54 | 46.99490 | 15.44260 | 1109 ft | 14 kts | 169° |
| 2026-05-04 15:54 | 46.99407 | 15.44204 | 1111 ft | 15 kts | 228° |
| 2026-05-04 15:55 | 46.99331 | 15.44083 | 1110 ft | 17 kts | 227° |
| 2026-05-04 15:55 | 46.99244 | 15.43951 | 1110 ft | 18 kts | 217° |
| 2026-05-04 15:55 | 46.99114 | 15.43960 | 1103 ft | 21 kts | 168° |
| 2026-05-04 15:55 | 46.98957 | 15.44005 | 1101 ft | 25 kts | 169° |
| 2026-05-04 15:56 | 46.98773 | 15.44055 | 1102 ft | 29 kts | 169° |
| 2026-05-04 15:56 | 46.98566 | 15.44113 | 1097 ft | 32 kts | 169° |
| 2026-05-04 15:56 | 46.98334 | 15.44177 | 1096 ft | 36 kts | 169° |
| 2026-05-04 15:56 | 46.98077 | 15.44248 | 1091 ft | 35 kts | 169° |
| 2026-05-04 15:57 | 46.97893 | 15.44301 | 1092 ft | 22 kts | 162° |
| 2026-05-04 15:57 | 46.97814 | 15.44343 | 1092 ft | 8 kts | 290° |
| 2026-05-04 15:57 | 46.97857 | 15.44307 | 1091 ft | 8 kts | 351° |
| 2026-05-04 15:57 | 46.97986 | 15.44272 | 1091 ft | 43 kts | 348° |
| 2026-05-04 15:58 | 46.98476 | 15.44139 | 1099 ft | 100 kts | 349° |
| 2026-05-04 15:58 | 46.99344 | 15.43899 | 1110 ft | 153 kts | 349° |
| 2026-05-04 15:58 | 47.00493 | 15.43595 | 1453 ft | 170 kts | 352° |
| 2026-05-04 15:58 | 47.01661 | 15.43265 | 2103 ft | 171 kts | 347° |
| 2026-05-04 15:59 | 47.02836 | 15.42932 | 2593 ft | 181 kts | 347° |
| 2026-05-04 15:59 | 47.04123 | 15.42565 | 2872 ft | 202 kts | 346° |
| 2026-05-04 15:59 | 47.05585 | 15.42146 | 3160 ft | 227 kts | 347° |
| 2026-05-04 15:59 | 47.07223 | 15.41676 | 3578 ft | 252 kts | 345° |
| 2026-05-04 16:00 | 47.08868 | 15.40610 | 4085 ft | 270 kts | 321° |
| 2026-05-04 16:00 | 47.10295 | 15.38776 | 4993 ft | 276 kts | 311° |
| 2026-05-04 16:00 | 47.11613 | 15.36695 | 6004 ft | 280 kts | 309° |
| 2026-05-04 16:00 | 47.12917 | 15.34550 | 6998 ft | 282 kts | 309° |
| 2026-05-04 16:01 | 47.14250 | 15.32414 | 7956 ft | 285 kts | 311° |
| 2026-05-04 16:01 | 47.15604 | 15.30320 | 8875 ft | 289 kts | 311° |
| 2026-05-04 16:01 | 47.17022 | 15.28198 | 9785 ft | 293 kts | 311° |
| 2026-05-04 16:01 | 47.18468 | 15.26081 | 10634 ft | 295 kts | 312° |
| 2026-05-04 16:02 | 47.19968 | 15.23904 | 11063 ft | 314 kts | 313° |
| 2026-05-04 16:02 | 47.21581 | 15.21565 | 11352 ft | 336 kts | 313° |
| 2026-05-04 16:02 | 47.25011 | 15.16605 | 12583 ft | 352 kts | 313° |
| 2026-05-04 16:03 | 47.26748 | 15.14100 | 13305 ft | 357 kts | 313° |
| 2026-05-04 16:03 | 47.28527 | 15.11535 | 14056 ft | 358 kts | 313° |
| 2026-05-04 16:03 | 47.30393 | 15.09064 | 14705 ft | 365 kts | 321° |
| 2026-05-04 16:03 | 47.32533 | 15.07009 | 15385 ft | 369 kts | 325° |
| 2026-05-04 16:04 | 47.34729 | 15.05006 | 16033 ft | 373 kts | 325° |
| 2026-05-04 16:04 | 47.39172 | 15.00929 | 17379 ft | 379 kts | 324° |
| 2026-05-04 16:04 | 47.41388 | 14.98890 | 18032 ft | 382 kts | 325° |
| 2026-05-04 16:05 | 47.43652 | 14.96802 | 18642 ft | 385 kts | 326° |
| 2026-05-04 16:05 | 47.45931 | 14.94697 | 19268 ft | 387 kts | 325° |
| 2026-05-04 16:05 | 47.50540 | 14.90448 | 20452 ft | 393 kts | 326° |
| 2026-05-04 16:06 | 47.52868 | 14.88295 | 21033 ft | 396 kts | 324° |
| 2026-05-04 16:06 | 47.59140 | 14.82487 | 22523 ft | 403 kts | 325° |
| 2026-05-04 16:07 | 47.62310 | 14.79557 | 23212 ft | 407 kts | 326° |
| 2026-05-04 16:07 | 47.69581 | 14.72806 | 24550 ft | 415 kts | 326° |
| 2026-05-04 16:08 | 47.72031 | 14.70518 | 24992 ft | 417 kts | 326° |
| 2026-05-04 16:08 | 47.79424 | 14.63615 | 26267 ft | 423 kts | 326° |
| 2026-05-04 16:09 | 47.84437 | 14.58923 | 27098 ft | 428 kts | 326° |
| 2026-05-04 16:09 | 47.89495 | 14.54173 | 27923 ft | 432 kts | 326° |
| 2026-05-04 16:10 | 47.94613 | 14.49351 | 28687 ft | 438 kts | 326° |
| 2026-05-04 16:11 | 48.02367 | 14.42046 | 29814 ft | 445 kts | 326° |
| 2026-05-04 16:11 | 48.04983 | 14.39568 | 30135 ft | 447 kts | 326° |
| 2026-05-04 16:12 | 48.12899 | 14.32056 | 31017 ft | 452 kts | 326° |
| 2026-05-04 16:12 | 48.20796 | 14.24533 | 32305 ft | 448 kts | 325° |
| 2026-05-04 16:13 | 48.26034 | 14.19522 | 33170 ft | 445 kts | 324° |
| 2026-05-04 16:13 | 48.31252 | 14.14532 | 34038 ft | 443 kts | 324° |
| 2026-05-04 16:14 | 48.36444 | 14.09558 | 34812 ft | 442 kts | 324° |
| 2026-05-04 16:14 | 48.41578 | 14.04623 | 35605 ft | 440 kts | 324° |
| 2026-05-04 16:15 | 48.49277 | 13.97184 | 36684 ft | 437 kts | 324° |
| 2026-05-04 16:16 | 48.54388 | 13.92244 | 37327 ft | 436 kts | 324° |
| 2026-05-04 16:16 | 48.62013 | 13.84859 | 37934 ft | 434 kts | 324° |
| 2026-05-04 16:17 | 48.67081 | 13.79927 | 37927 ft | 433 kts | 324° |
| 2026-05-04 16:18 | 48.74387 | 13.72025 | 37933 ft | 427 kts | 311° |
| 2026-05-04 16:18 | 48.76278 | 13.68587 | 37934 ft | 424 kts | 302° |
| 2026-05-04 16:19 | 48.79881 | 13.56569 | 37937 ft | 420 kts | 289° |
| 2026-05-04 16:19 | 48.81973 | 13.48307 | 37932 ft | 420 kts | 289° |
| 2026-05-04 16:20 | 48.87201 | 13.27695 | 37933 ft | 420 kts | 294° |
| 2026-05-04 16:21 | 48.92632 | 13.17180 | 37933 ft | 427 kts | 312° |
| 2026-05-04 16:22 | 48.96835 | 13.10793 | 37936 ft | 427 kts | 312° |
| 2026-05-04 16:23 | 49.09393 | 12.91584 | 37945 ft | 428 kts | 311° |
| 2026-05-04 16:25 | 49.21908 | 12.72293 | 37942 ft | 427 kts | 311° |
| 2026-05-04 16:26 | 49.35006 | 12.48203 | 37957 ft | 418 kts | 287° |
| 2026-05-04 16:28 | 49.39916 | 12.27290 | 37948 ft | 418 kts | 287° |
| 2026-05-04 16:29 | 49.46783 | 11.97855 | 37974 ft | 419 kts | 287° |
| 2026-05-04 16:31 | 49.51615 | 11.76796 | 37976 ft | 418 kts | 287° |
| 2026-05-04 16:32 | 49.58357 | 11.52120 | 37963 ft | 427 kts | 306° |
| 2026-05-04 16:33 | 49.66607 | 11.38874 | 37959 ft | 430 kts | 310° |
| 2026-05-04 16:34 | 49.72850 | 11.28928 | 37966 ft | 430 kts | 310° |
| 2026-05-04 16:35 | 49.84629 | 11.10022 | 37963 ft | 431 kts | 310° |
| 2026-05-04 16:36 | 49.90853 | 10.99952 | 37977 ft | 431 kts | 310° |
| 2026-05-04 16:37 | 49.97059 | 10.89933 | 37969 ft | 431 kts | 309° |
| 2026-05-04 16:38 | 50.05349 | 10.76436 | 37962 ft | 432 kts | 309° |
| 2026-05-04 16:39 | 50.10540 | 10.65264 | 37963 ft | 426 kts | 297° |
| 2026-05-04 16:39 | 50.13650 | 10.57403 | 37986 ft | 426 kts | 297° |
| 2026-05-04 16:40 | 50.19877 | 10.41640 | 37983 ft | 427 kts | 297° |
| 2026-05-04 16:41 | 50.28296 | 10.22507 | 37978 ft | 430 kts | 301° |
| 2026-05-04 16:43 | 50.36845 | 10.03411 | 37975 ft | 430 kts | 300° |
| 2026-05-04 16:43 | 50.41949 | 9.91858 | 37967 ft | 430 kts | 300° |
| 2026-05-04 16:45 | 50.52108 | 9.68739 | 37977 ft | 430 kts | 300° |
| 2026-05-04 16:46 | 50.60577 | 9.49326 | 37954 ft | 431 kts | 300° |
| 2026-05-04 16:47 | 50.67307 | 9.33776 | 37974 ft | 431 kts | 300° |
| 2026-05-04 16:48 | 50.74016 | 9.18226 | 37968 ft | 430 kts | 300° |
| 2026-05-04 16:49 | 50.80707 | 9.02565 | 37976 ft | 430 kts | 299° |
| 2026-05-04 16:50 | 50.87723 | 8.87275 | 37976 ft | 433 kts | 304° |
| 2026-05-04 16:51 | 50.93461 | 8.76190 | 37037 ft | 440 kts | 304° |
| 2026-05-04 16:51 | 50.97320 | 8.68503 | 35420 ft | 447 kts | 303° |
| 2026-05-04 16:52 | 51.01278 | 8.60859 | 34084 ft | 451 kts | 310° |
| 2026-05-04 16:52 | 51.03675 | 8.57590 | 33230 ft | 458 kts | 319° |
| 2026-05-04 16:53 | 51.09000 | 8.52037 | 31287 ft | 465 kts | 322° |
| 2026-05-04 16:53 | 51.17134 | 8.43615 | 28812 ft | 461 kts | 322° |
| 2026-05-04 16:54 | 51.19663 | 8.40621 | 28519 ft | 442 kts | 311° |
| 2026-05-04 16:55 | 51.24286 | 8.24318 | 26487 ft | 399 kts | 280° |
| 2026-05-04 16:55 | 51.25609 | 8.15779 | 25261 ft | 394 kts | 280° |
| 2026-05-04 16:56 | 51.26926 | 8.07336 | 24093 ft | 390 kts | 280° |
| 2026-05-04 16:56 | 51.28939 | 7.94384 | 21128 ft | 405 kts | 281° |
| 2026-05-04 16:57 | 51.29605 | 7.90094 | 20423 ft | 402 kts | 281° |
| 2026-05-04 16:57 | 51.30946 | 7.81467 | 19151 ft | 397 kts | 281° |
| 2026-05-04 16:58 | 51.32887 | 7.68778 | 16590 ft | 385 kts | 281° |
| 2026-05-04 16:58 | 51.33508 | 7.64671 | 15924 ft | 372 kts | 281° |
| 2026-05-04 16:59 | 51.34637 | 7.57220 | 15552 ft | 326 kts | 281° |
| 2026-05-04 17:00 | 51.36962 | 7.41579 | 11414 ft | 399 kts | 282° |
| 2026-05-04 17:00 | 51.38898 | 7.28768 | 8266 ft | 381 kts | 282° |
| 2026-05-04 17:01 | 51.40098 | 7.20706 | 6293 ft | 369 kts | 281° |
| 2026-05-04 17:01 | 51.41219 | 7.13085 | 4943 ft | 330 kts | 281° |
| 2026-05-04 17:02 | 51.41990 | 7.06359 | 4256 ft | 285 kts | 262° |
| 2026-05-04 17:02 | 51.40322 | 7.01288 | 3923 ft | 240 kts | 231° |
| 2026-05-04 17:03 | 51.39343 | 6.99212 | 3683 ft | 227 kts | 231° |
| 2026-05-04 17:03 | 51.38440 | 6.97296 | 3424 ft | 208 kts | 231° |
| 2026-05-04 17:03 | 51.36815 | 6.93855 | 2748 ft | 185 kts | 230° |
| 2026-05-04 17:04 | 51.35284 | 6.90615 | 2117 ft | 174 kts | 230° |
| 2026-05-04 17:04 | 51.33973 | 6.87851 | 1677 ft | 141 kts | 230° |
| 2026-05-04 17:05 | 51.32836 | 6.85456 | 1323 ft | 136 kts | 230° |
| 2026-05-04 17:05 | 51.31712 | 6.83056 | 928 ft | 133 kts | 228° |
| 2026-05-04 17:06 | 51.30574 | 6.80688 | 569 ft | 134 kts | 230° |
| 2026-05-04 17:06 | 51.30017 | 6.79517 | 377 ft | 133 kts | 230° |
| 2026-05-04 17:07 | 51.28920 | 6.77218 | 125 ft | 114 kts | 233° |
| 2026-05-04 17:07 | 51.28647 | 6.76644 | 131 ft | 81 kts | 232° |
| 2026-05-04 17:07 | 51.28381 | 6.76097 | 128 ft | 17 kts | 220° |
| 2026-05-04 17:07 | 51.28279 | 6.76039 | 129 ft | 9 kts | 179° |
| 2026-05-04 17:08 | 51.28226 | 6.76059 | 129 ft | 6 kts | 159° |
| 2026-05-04 17:08 | 51.28186 | 6.76113 | 129 ft | 5 kts | 103° |
| 2026-05-04 17:08 | 51.28205 | 6.76179 | 124 ft | 8 kts | 52° |
| 2026-05-04 17:09 | 51.28248 | 6.76269 | 126 ft | 12 kts | 53° |
| 2026-05-04 17:09 | 51.28307 | 6.76394 | 127 ft | 16 kts | 52° |
| 2026-05-04 17:09 | 51.28382 | 6.76551 | 125 ft | 19 kts | 52° |
| 2026-05-04 17:10 | 51.28428 | 6.76801 | 124 ft | 12 kts | 144° |
| 2026-05-04 17:10 | 51.28427 | 6.77105 | 127 ft | 10 kts | 52° |
| 2026-05-04 17:11 | 51.28428 | 6.77190 | 128 ft | 8 kts | 135° |
| 2026-05-04 17:11 | 51.28404 | 6.77218 | 128 ft | 0 kts | 143° |